Time;durP1;ratioP1;P1;durP2;ratioP2;P2;SDS_P1;SDS_P2;PMS_P1;PMS_P2;Temp;Humidity;BMP_temperature;BMP_pressure;BME280_temperature;BME280_humidity;BME280_pressure;Samples;Min_cycle;Max_cycle;Signal;HPM_P1;HPM_P2
2022/04/27 00:01:52;;;;;;;5.00;3.92;;;9.00;99.90;;;;;;5094546;28;20178;-60
2022/04/27 00:04:17;;;;;;;5.00;4.43;;;9.00;99.90;;;;;;5094244;28;20185;-61
2022/04/27 00:06:43;;;;;;;4.85;3.58;;;9.00;99.90;;;;;;5094283;28;20202;-61
2022/04/27 00:09:09;;;;;;;3.83;3.40;;;8.90;99.90;;;;;;5094626;28;20178;-61
2022/04/27 00:11:34;;;;;;;4.32;3.60;;;8.90;99.90;;;;;;5094538;28;20173;-61
2022/04/27 00:14:00;;;;;;;4.93;4.43;;;9.00;99.90;;;;;;5094410;28;20169;-61
2022/04/27 00:16:27;;;;;;;4.75;3.55;;;9.00;99.90;;;;;;5094300;28;20182;-61
2022/04/27 00:18:53;;;;;;;4.90;3.65;;;9.00;99.90;;;;;;5094153;28;20173;-61
2022/04/27 00:21:18;;;;;;;4.22;3.45;;;9.00;99.90;;;;;;5094177;28;20311;-61
2022/04/27 00:23:44;;;;;;;5.68;3.85;;;8.90;99.90;;;;;;5094299;28;20235;-61
2022/04/27 00:26:10;;;;;;;4.40;3.95;;;8.90;99.90;;;;;;5093642;28;20210;-61
2022/04/27 00:28:36;;;;;;;3.72;3.33;;;8.80;99.90;;;;;;5093816;28;20174;-61
2022/04/27 00:31:01;;;;;;;5.40;3.92;;;8.70;99.90;;;;;;5093989;28;20227;-61
2022/04/27 00:33:27;;;;;;;4.78;3.78;;;8.80;99.90;;;;;;5093846;28;20264;-61
2022/04/27 00:35:53;;;;;;;5.18;3.78;;;8.70;99.90;;;;;;5094016;28;20189;-60
2022/04/27 00:38:19;;;;;;;4.68;3.67;;;8.60;99.90;;;;;;5094034;28;20173;-61
2022/04/27 00:40:45;;;;;;;4.95;4.25;;;8.70;99.90;;;;;;5093949;28;20178;-61
2022/04/27 00:43:14;;;;;;;5.38;4.28;;;8.60;99.90;;;;;;5094252;28;20519;-60
2022/04/27 00:45:40;;;;;;;4.57;4.07;;;8.60;99.90;;;;;;5093707;28;20193;-61
2022/04/27 00:48:06;;;;;;;4.97;4.20;;;8.60;99.90;;;;;;5093755;28;20238;-61
2022/04/27 00:50:32;;;;;;;5.15;3.83;;;8.70;99.90;;;;;;5093465;28;20248;-61
2022/04/27 00:53:00;;;;;;;6.43;4.28;;;8.80;99.90;;;;;;5093806;28;20174;-61
2022/04/27 00:55:26;;;;;;;4.95;3.88;;;8.80;99.90;;;;;;5093568;28;20627;-61
2022/04/27 00:57:52;;;;;;;4.60;4.07;;;8.80;99.90;;;;;;5093658;28;20174;-60
2022/04/27 01:00:18;;;;;;;4.40;3.85;;;8.70;99.90;;;;;;5093763;28;20261;-61
2022/04/27 01:02:44;;;;;;;4.72;3.90;;;8.70;99.90;;;;;;5093466;28;20180;-61
2022/04/27 01:05:11;;;;;;;5.25;4.60;;;8.60;99.90;;;;;;5093103;28;20186;-61
2022/04/27 01:07:41;;;;;;;5.00;4.45;;;8.60;99.90;;;;;;5093563;28;20699;-61
2022/04/27 01:10:08;;;;;;;5.53;4.68;;;8.70;99.90;;;;;;5093599;28;20170;-61
2022/04/27 01:12:35;;;;;;;5.55;4.55;;;8.70;99.90;;;;;;5093710;28;20182;-61
2022/04/27 01:15:01;;;;;;;5.88;4.50;;;8.70;99.90;;;;;;5093347;28;20170;-61
2022/04/27 01:17:26;;;;;;;5.38;4.25;;;8.70;99.90;;;;;;5093275;28;20235;-61
2022/04/27 01:19:52;;;;;;;6.00;4.25;;;8.70;99.90;;;;;;5093249;28;20627;-61
2022/04/27 01:22:18;;;;;;;5.22;4.70;;;8.60;99.90;;;;;;5093258;28;20260;-61
2022/04/27 01:24:44;;;;;;;5.65;4.72;;;8.60;99.90;;;;;;5093392;28;20534;-60
2022/04/27 01:27:10;;;;;;;4.90;4.03;;;8.60;99.90;;;;;;5092229;28;20206;-61
2022/04/27 01:29:37;;;;;;;4.93;4.03;;;8.60;99.90;;;;;;5093221;28;20178;-61
2022/04/27 01:32:03;;;;;;;4.93;4.10;;;8.70;99.90;;;;;;5093122;28;20169;-61
2022/04/27 01:34:29;;;;;;;6.05;5.20;;;8.60;99.90;;;;;;5093350;28;20571;-61
2022/04/27 01:36:55;;;;;;;6.00;5.40;;;8.50;99.90;;;;;;5093219;28;20212;-61
2022/04/27 01:39:23;;;;;;;4.63;4.18;;;8.40;99.90;;;;;;5096332;28;20540;-61
2022/04/27 01:41:50;;;;;;;5.35;4.65;;;8.30;99.90;;;;;;5097270;28;20162;-61
2022/04/27 01:44:16;;;;;;;4.88;4.10;;;8.30;99.90;;;;;;5097333;28;20231;-61
2022/04/27 01:46:42;;;;;;;5.72;5.00;;;8.30;99.90;;;;;;5096932;28;20664;-61
2022/04/27 01:49:07;;;;;;;5.28;4.28;;;8.20;99.90;;;;;;5097318;28;20307;-61
2022/04/27 01:54:17;;;;;;;5.15;4.65;;;8.10;99.90;;;;;;5097408;28;20234;-61
2022/04/27 01:56:43;;;;;;;7.18;4.60;;;8.10;99.90;;;;;;5097092;28;20577;-61
2022/04/27 01:59:09;;;;;;;6.80;3.85;;;8.00;99.90;;;;;;5096883;28;20282;-61
2022/04/27 02:01:35;;;;;;;6.25;4.45;;;8.10;99.90;;;;;;5096990;28;20169;-61
2022/04/27 02:04:01;;;;;;;5.72;4.65;;;8.20;99.90;;;;;;5096818;28;20224;-61
2022/04/27 02:06:27;;;;;;;5.55;4.95;;;8.20;99.90;;;;;;5096780;28;20216;-61
2022/04/27 02:08:53;;;;;;;6.45;5.07;;;8.10;99.90;;;;;;5096667;28;20174;-60
2022/04/27 02:11:24;;;;;;;5.15;4.65;;;8.10;99.90;;;;;;5112589;28;20652;-61
2022/04/27 02:13:54;;;;;;;5.63;4.85;;;8.00;99.90;;;;;;5096501;28;20261;-61
2022/04/27 02:16:21;;;;;;;5.43;4.78;;;8.00;99.90;;;;;;5096550;28;20569;-60
2022/04/27 02:18:48;;;;;;;5.40;4.90;;;8.00;99.90;;;;;;5096871;28;20223;-61
2022/04/27 02:21:14;;;;;;;5.03;4.50;;;8.00;99.90;;;;;;5112416;28;20178;-61
2022/04/27 02:23:40;;;;;;;5.53;4.82;;;8.10;99.90;;;;;;5096435;28;20658;-61
2022/04/27 02:26:06;;;;;;;6.47;4.75;;;8.10;99.90;;;;;;5096407;28;20205;-61
2022/04/27 02:28:32;;;;;;;6.40;5.07;;;8.00;99.90;;;;;;5096363;28;20563;-60
2022/04/27 02:30:57;;;;;;;6.30;5.00;;;8.00;99.90;;;;;;5096262;28;20166;-60
2022/04/27 02:33:23;;;;;;;5.68;5.05;;;8.00;99.90;;;;;;5096399;28;20170;-61
2022/04/27 02:35:49;;;;;;;6.97;4.22;;;7.90;99.90;;;;;;5096139;28;20182;-60
2022/04/27 02:38:15;;;;;;;4.95;3.90;;;7.90;99.90;;;;;;5095023;28;20209;-61
2022/04/27 02:40:40;;;;;;;6.57;4.88;;;7.90;99.90;;;;;;5096106;28;20185;-61
2022/04/27 02:43:06;;;;;;;5.05;4.40;;;7.80;99.90;;;;;;5096142;28;20186;-60
2022/04/27 02:45:32;;;;;;;5.15;4.22;;;7.70;99.90;;;;;;5096080;28;20205;-61
2022/04/27 02:47:57;;;;;;;6.45;4.53;;;7.60;99.90;;;;;;5111783;28;20178;-60
2022/04/27 02:53:07;;;;;;;4.85;3.58;;;7.70;99.90;;;;;;5095206;28;20188;-60
2022/04/27 02:55:33;;;;;;;4.80;4.32;;;7.70;99.90;;;;;;5095777;28;20650;-60
2022/04/27 02:57:58;;;;;;;5.88;4.68;;;7.70;99.90;;;;;;5111741;28;20176;-61
2022/04/27 03:00:24;;;;;;;5.38;4.55;;;7.70;99.90;;;;;;5095903;28;20174;-61
2022/04/27 03:02:50;;;;;;;5.05;4.18;;;7.70;99.90;;;;;;5095748;28;20177;-60
2022/04/27 03:05:16;;;;;;;5.75;4.85;;;7.50;99.90;;;;;;5095313;28;20197;-61
2022/04/27 03:07:42;;;;;;;5.60;4.75;;;7.40;99.90;;;;;;5095586;28;20192;-60
2022/04/27 03:10:08;;;;;;;7.47;4.90;;;7.40;99.90;;;;;;5095498;28;20268;-60
2022/04/27 03:12:36;;;;;;;5.47;4.63;;;7.50;99.90;;;;;;5095727;28;20258;-60
2022/04/27 03:15:03;;;;;;;6.00;4.70;;;7.50;99.90;;;;;;5095604;28;20647;-60
2022/04/27 03:17:28;;;;;;;5.35;4.35;;;7.60;99.90;;;;;;5095409;28;20684;-60
2022/04/27 03:19:54;;;;;;;7.82;4.95;;;7.60;99.90;;;;;;5095374;28;20170;-61
2022/04/27 03:22:19;;;;;;;5.60;4.57;;;7.60;99.90;;;;;;5111050;28;20188;-60
2022/04/27 03:24:45;;;;;;;6.53;4.93;;;7.60;99.90;;;;;;5095216;28;20177;-61
2022/04/27 03:27:11;;;;;;;6.40;4.75;;;7.60;99.90;;;;;;5111026;28;20677;-61
2022/04/27 03:29:36;;;;;;;5.95;4.55;;;7.60;99.90;;;;;;5095162;28;20188;-61
2022/04/27 03:32:02;;;;;;;6.25;4.65;;;7.60;99.90;;;;;;5110830;28;20235;-61
2022/04/27 03:34:28;;;;;;;5.18;4.60;;;7.60;99.90;;;;;;5095285;28;20251;-61
2022/04/27 03:36:54;;;;;;;5.93;4.57;;;7.60;99.90;;;;;;5093814;28;20180;-60
2022/04/27 03:39:19;;;;;;;6.03;4.90;;;7.60;99.90;;;;;;5095079;28;20170;-61
2022/04/27 03:41:45;;;;;;;6.40;5.22;;;7.50;99.90;;;;;;5095156;28;20177;-60
2022/04/27 03:44:10;;;;;;;5.65;4.55;;;7.50;99.90;;;;;;5095010;28;20184;-61
2022/04/27 03:46:36;;;;;;;7.40;5.32;;;7.40;99.90;;;;;;5094879;28;20304;-61
2022/04/27 03:49:02;;;;;;;6.80;4.13;;;7.30;99.90;;;;;;5094827;28;20203;-60
2022/04/27 03:51:27;;;;;;;7.03;5.93;;;7.40;99.90;;;;;;5094768;28;20179;-61
2022/04/27 03:53:53;;;;;;;7.57;4.45;;;7.40;99.90;;;;;;5094737;28;20234;-61
2022/04/27 03:56:19;;;;;;;7.43;5.45;;;7.30;99.90;;;;;;5093860;28;20531;-60
2022/04/27 03:58:44;;;;;;;8.13;4.50;;;7.30;99.90;;;;;;5094717;28;20181;-61
2022/04/27 04:01:10;;;;;;;6.93;5.32;;;7.40;99.90;;;;;;5110320;28;20186;-61
2022/04/27 04:03:36;;;;;;;8.60;4.72;;;7.40;99.90;;;;;;5094340;28;20223;-60
2022/04/27 04:06:01;;;;;;;6.75;5.25;;;7.40;99.90;;;;;;5094470;28;20560;-60
2022/04/27 04:08:27;;;;;;;7.65;5.38;;;7.40;99.90;;;;;;5094341;28;20638;-60
2022/04/27 04:10:53;;;;;;;6.30;4.50;;;7.40;99.90;;;;;;5094566;28;20258;-60
2022/04/27 04:13:18;;;;;;;8.43;5.00;;;7.40;99.90;;;;;;5110193;28;20595;-61
2022/04/27 04:15:44;;;;;;;6.03;4.28;;;7.40;99.90;;;;;;5094286;28;20646;-60
2022/04/27 04:18:09;;;;;;;8.13;4.97;;;7.30;99.90;;;;;;5093248;28;20200;-60
2022/04/27 04:20:35;;;;;;;7.05;5.82;;;7.30;99.90;;;;;;5094235;28;20276;-60
2022/04/27 04:23:01;;;;;;;7.00;5.10;;;7.30;99.90;;;;;;5094103;28;20246;-61
2022/04/27 04:30:56;;;;;;;7.47;5.38;;;7.30;99.90;;;;;;5094369;28;20227;-61
2022/04/27 04:33:22;;;;;;;6.85;5.43;;;7.30;99.90;;;;;;5093868;28;20173;-60
2022/04/27 04:35:48;;;;;;;7.70;4.85;;;7.20;99.90;;;;;;5094304;28;20182;-61
2022/04/27 04:38:14;;;;;;;7.05;5.90;;;7.20;99.90;;;;;;5094033;28;20281;-60
2022/04/27 04:40:40;;;;;;;7.00;5.47;;;7.20;99.90;;;;;;5093940;28;20280;-60
2022/04/27 04:43:06;;;;;;;6.70;5.10;;;7.20;99.90;;;;;;5093919;28;20647;-60
2022/04/27 04:45:31;;;;;;;6.30;5.10;;;7.20;99.90;;;;;;5109447;28;20230;-60
2022/04/27 04:47:57;;;;;;;6.30;4.95;;;7.10;99.90;;;;;;5093988;28;20182;-60
2022/04/27 04:50:23;;;;;;;6.82;4.53;;;7.20;99.90;;;;;;5093946;28;20181;-60
2022/04/27 04:52:49;;;;;;;6.88;5.63;;;7.20;99.90;;;;;;5093828;28;20169;-60
2022/04/27 04:55:15;;;;;;;6.53;5.30;;;7.20;99.90;;;;;;5093759;28;20577;-60
2022/04/27 04:57:41;;;;;;;7.82;5.13;;;7.20;99.90;;;;;;5093801;28;20174;-60
2022/04/27 05:00:09;;;;;;;7.38;5.40;;;7.20;99.90;;;;;;5093649;28;20215;-60
2022/04/27 05:02:34;;;;;;;7.55;5.07;;;7.20;99.90;;;;;;5093477;28;20265;-60
2022/04/27 05:05:02;;;;;;;6.65;4.90;;;7.20;99.90;;;;;;5093432;28;20224;-60
2022/04/27 05:07:30;;;;;;;8.50;5.90;;;7.30;99.90;;;;;;5093576;28;20609;-60
2022/04/27 05:09:56;;;;;;;7.95;5.05;;;7.40;99.90;;;;;;5092190;28;20182;-60
2022/04/27 05:12:23;;;;;;;8.82;5.57;;;7.40;99.90;;;;;;5093128;28;20223;-61
2022/04/27 05:14:49;;;;;;;7.38;5.68;;;7.50;99.90;;;;;;5093251;28;20174;-61
2022/04/27 05:17:14;;;;;;;7.97;5.20;;;7.60;99.90;;;;;;5093286;28;20201;-60
2022/04/27 05:19:40;;;;;;;8.02;5.07;;;7.60;99.90;;;;;;5093277;28;20509;-60
2022/04/27 05:22:06;;;;;;;6.30;4.50;;;7.70;99.90;;;;;;5093455;28;20174;-60
2022/04/27 05:24:31;;;;;;;7.32;5.40;;;7.80;99.90;;;;;;5093403;28;20205;-60
2022/04/27 05:26:57;;;;;;;7.93;5.40;;;7.90;99.90;;;;;;5090938;28;20302;-60
2022/04/27 05:32:07;;;;;;;8.20;5.57;;;8.10;99.90;;;;;;5093448;28;20236;-60
2022/04/27 05:34:33;;;;;;;8.48;5.75;;;8.20;99.90;;;;;;5093100;28;20542;-60
2022/04/27 05:37:02;;;;;;;7.13;5.50;;;8.20;99.90;;;;;;5091949;28;20232;-60
2022/04/27 05:39:28;;;;;;;7.85;5.93;;;8.30;99.90;;;;;;5108758;28;20177;-60
2022/04/27 05:41:55;;;;;;;6.07;5.28;;;8.30;99.90;;;;;;5093367;28;20174;-60
2022/04/27 05:44:22;;;;;;;7.18;5.03;;;8.40;99.90;;;;;;5093077;28;20178;-60
2022/04/27 05:46:48;;;;;;;6.50;5.13;;;8.50;99.90;;;;;;5093046;28;20214;-60
2022/04/27 05:49:14;;;;;;;8.27;4.90;;;8.60;99.90;;;;;;5093280;28;20201;-60
2022/04/27 05:51:41;;;;;;;5.63;4.90;;;8.70;99.90;;;;;;5093061;28;20262;-60
2022/04/27 05:54:07;;;;;;;7.13;5.13;;;8.80;99.90;;;;;;5091845;28;20178;-59
2022/04/27 05:56:33;;;;;;;7.88;4.65;;;8.80;99.90;;;;;;5091731;28;20178;-60
2022/04/27 05:58:59;;;;;;;7.50;5.53;;;9.00;99.90;;;;;;5093162;28;20181;-60
2022/04/27 06:01:25;;;;;;;9.02;5.82;;;9.20;99.90;;;;;;5093014;28;20235;-60
2022/04/27 06:03:50;;;;;;;8.65;5.60;;;9.20;99.90;;;;;;5093011;28;20171;-60
2022/04/27 06:06:16;;;;;;;6.90;4.95;;;9.40;99.90;;;;;;5093000;28;20297;-60
2022/04/27 06:08:42;;;;;;;7.07;5.47;;;9.50;99.90;;;;;;5092866;28;20174;-60
2022/04/27 06:11:08;;;;;;;6.38;4.72;;;9.60;99.90;;;;;;5092834;28;20182;-60
2022/04/27 06:13:33;;;;;;;6.75;4.97;;;9.70;99.90;;;;;;5092713;28;20166;-60
2022/04/27 06:15:59;;;;;;;6.60;5.05;;;9.90;99.90;;;;;;5093127;28;20217;-60
2022/04/27 06:18:25;;;;;;;5.97;5.00;;;10.00;99.90;;;;;;5092945;28;20505;-60
2022/04/27 06:20:52;;;;;;;7.35;5.18;;;10.10;99.90;;;;;;5092781;28;20620;-60
2022/04/27 06:23:18;;;;;;;6.63;5.10;;;10.30;99.90;;;;;;5092705;28;20239;-60
2022/04/27 06:25:47;;;;;;;5.35;4.63;;;10.40;99.90;;;;;;5094426;28;20209;-60
2022/04/27 06:28:13;;;;;;;6.82;4.57;;;10.50;99.90;;;;;;5096654;28;20649;-60
2022/04/27 06:30:39;;;;;;;5.15;4.25;;;10.60;99.90;;;;;;5096368;28;20173;-60
2022/04/27 06:33:05;;;;;;;5.63;4.15;;;10.60;99.90;;;;;;5096367;28;20275;-60
2022/04/27 06:35:31;;;;;;;6.22;4.40;;;10.60;99.90;;;;;;5096409;28;20322;-60
2022/04/27 06:37:57;;;;;;;5.20;4.05;;;10.60;99.90;;;;;;5096803;28;20174;-61
2022/04/27 06:40:22;;;;;;;5.97;4.15;;;10.70;99.90;;;;;;5096099;28;20578;-60
2022/04/27 06:42:48;;;;;;;4.85;4.07;;;10.70;99.90;;;;;;5096310;28;20228;-60
2022/04/27 06:45:14;;;;;;;6.07;4.03;;;10.80;99.90;;;;;;5096395;28;20538;-60
2022/04/27 06:47:39;;;;;;;6.90;3.88;;;10.90;99.90;;;;;;5096119;28;20307;-61
2022/04/27 06:50:06;;;;;;;5.40;3.55;;;10.80;99.90;;;;;;5096030;28;20261;-60
2022/04/27 06:52:39;;;;;;;5.60;3.97;;;10.80;99.90;;;;;;5095824;28;20174;-60
2022/04/27 06:55:05;;;;;;;8.02;4.60;;;10.90;99.90;;;;;;5095920;28;20168;-60
2022/04/27 06:57:30;;;;;;;5.63;4.03;;;10.90;99.90;;;;;;5096011;28;20197;-60
2022/04/27 06:59:56;;;;;;;5.03;4.03;;;11.00;99.90;;;;;;5095901;28;20185;-60
2022/04/27 07:02:22;;;;;;;4.72;3.90;;;11.20;99.90;;;;;;5095895;28;20182;-61
2022/04/27 07:04:55;;;;;;;4.72;4.15;;;11.20;99.90;;;;;;5095812;28;20213;-60
2022/04/27 07:07:21;;;;;;;4.40;3.63;;;11.30;99.90;;;;;;5095499;28;20241;-60
2022/04/27 07:09:47;;;;;;;4.68;3.38;;;11.50;99.90;;;;;;5111254;28;20208;-60
2022/04/27 07:12:13;;;;;;;4.43;3.38;;;11.80;99.90;;;;;;5095561;28;20610;-61
2022/04/27 07:14:39;;;;;;;4.43;3.60;;;11.90;99.90;;;;;;5095651;28;20170;-60
2022/04/27 07:17:04;;;;;;;4.50;3.22;;;12.00;99.90;;;;;;5111281;28;20181;-60
2022/04/27 07:19:30;;;;;;;4.63;3.15;;;12.00;99.90;;;;;;5095433;28;20169;-60
2022/04/27 07:21:56;;;;;;;5.20;2.90;;;11.90;99.90;;;;;;5095326;28;20181;-60
2022/04/27 07:24:21;;;;;;;3.28;2.95;;;11.80;99.90;;;;;;5095548;28;20578;-60
2022/04/27 07:26:47;;;;;;;3.60;3.00;;;11.90;99.90;;;;;;5095351;28;20220;-61
2022/04/27 07:29:13;;;;;;;3.40;2.90;;;12.00;99.90;;;;;;5095391;28;20205;-60
2022/04/27 07:31:39;;;;;;;5.10;3.13;;;12.00;99.90;;;;;;5095273;28;20170;-61
2022/04/27 07:34:05;;;;;;;2.75;2.45;;;12.00;99.90;;;;;;5110812;28;20182;-60
2022/04/27 07:36:30;;;;;;;2.97;2.67;;;12.10;99.90;;;;;;5093464;28;20174;-60
2022/04/27 07:38:57;;;;;;;3.17;2.53;;;12.10;99.90;;;;;;5094990;28;20170;-60
2022/04/27 07:41:22;;;;;;;3.97;2.40;;;12.20;99.90;;;;;;5095093;28;20178;-60
2022/04/27 07:43:48;;;;;;;3.42;2.75;;;12.40;99.90;;;;;;5095017;28;20170;-60
2022/04/27 07:46:14;;;;;;;2.45;2.22;;;12.40;99.90;;;;;;5095147;28;20212;-60
2022/04/27 07:48:39;;;;;;;3.20;2.40;;;12.50;99.90;;;;;;5094760;28;20659;-60
2022/04/27 07:51:06;;;;;;;3.50;2.60;;;12.70;99.90;;;;;;5094790;28;20186;-60
2022/04/27 07:53:32;;;;;;;4.70;2.85;;;12.70;99.90;;;;;;5094975;28;20185;-60
2022/04/27 07:55:58;;;;;;;4.10;2.30;;;12.90;99.90;;;;;;5094859;28;20635;-60
2022/04/27 07:58:24;;;;;;;2.50;2.30;;;12.90;99.90;;;;;;5094775;28;20174;-60
2022/04/27 08:00:50;;;;;;;3.78;2.35;;;12.90;99.90;;;;;;5094609;28;20173;-60
2022/04/27 08:03:15;;;;;;;3.38;2.63;;;12.90;99.90;;;;;;5094512;28;20170;-60
2022/04/27 08:05:41;;;;;;;3.88;2.65;;;13.20;99.90;;;;;;5094230;28;20197;-60
2022/04/27 08:08:08;;;;;;;2.83;2.30;;;13.20;99.90;;;;;;5094516;28;20178;-60
2022/04/27 08:10:34;;;;;;;3.60;2.35;;;13.10;99.90;;;;;;5094567;28;20177;-60
2022/04/27 08:13:00;;;;;;;3.35;2.05;;;13.10;99.90;;;;;;5094437;28;20172;-60
2022/04/27 08:15:26;;;;;;;2.05;1.88;;;13.10;99.90;;;;;;5094353;28;20202;-61
2022/04/27 08:17:59;;;;;;;3.55;2.67;;;13.20;99.90;;;;;;5094373;28;20259;-60
2022/04/27 08:23:12;;;;;;;2.20;2.00;;;13.60;99.90;;;;;;5094460;28;20223;-61
2022/04/27 08:25:38;;;;;;;2.30;2.10;;;13.50;99.90;;;;;;5094142;28;20174;-61
2022/04/27 08:28:06;;;;;;;2.50;2.30;;;13.30;99.90;;;;;;5093035;28;20223;-60
2022/04/27 08:30:43;;;;;;;4.18;2.33;;;13.50;99.90;;;;;;5094154;28;20174;-61
2022/04/27 08:33:09;;;;;;;4.05;2.13;;;13.70;99.90;;;;;;5094311;28;20153;-61
2022/04/27 08:35:39;;;;;;;3.53;2.35;;;13.90;99.90;;;;;;5094179;28;20235;-61
2022/04/27 08:38:06;;;;;;;2.40;2.20;;;14.00;99.90;;;;;;5093992;28;20268;-61
2022/04/27 08:40:36;;;;;;;2.67;2.20;;;14.00;98.60;;;;;;5094039;28;20181;-61
2022/04/27 08:43:02;;;;;;;3.17;2.25;;;14.10;98.90;;;;;;5093948;28;20204;-61
2022/04/27 08:45:29;;;;;;;3.03;2.05;;;14.10;99.10;;;;;;5093593;28;20201;-61
2022/04/27 08:47:55;;;;;;;2.70;2.03;;;14.10;98.90;;;;;;5093142;28;20526;-61
2022/04/27 08:50:22;;;;;;;1.60;1.50;;;14.10;97.60;;;;;;5093891;28;20166;-61
2022/04/27 08:52:49;;;;;;;2.25;1.80;;;13.90;96.90;;;;;;5093799;28;20166;-61
2022/04/27 08:55:15;;;;;;;3.00;1.80;;;13.90;98.50;;;;;;5093733;28;20647;-61
2022/04/27 08:57:43;;;;;;;2.47;1.85;;;14.00;97.60;;;;;;5093597;28;20216;-60
2022/04/27 09:00:13;;;;;;;2.05;1.83;;;14.00;98.00;;;;;;5093453;28;20182;-60
2022/04/27 09:02:39;;;;;;;1.70;1.60;;;14.00;97.30;;;;;;5093781;28;20232;-60
2022/04/27 09:05:15;;;;;;;2.03;1.88;;;14.30;98.40;;;;;;5093296;28;20189;-61
2022/04/27 09:07:46;;;;;;;2.15;1.77;;;14.40;95.10;;;;;;5092184;28;20225;-61
2022/04/27 09:10:18;;;;;;;2.75;1.80;;;14.40;97.70;;;;;;5093374;28;20534;-61
2022/04/27 09:12:48;;;;;;;2.30;2.05;;;14.70;97.10;;;;;;5093629;28;20150;-60
2022/04/27 09:15:15;;;;;;;2.83;1.80;;;14.50;95.20;;;;;;5093619;28;20174;-61
2022/04/27 09:23:29;;;;;;;2.53;1.90;;;14.60;93.60;;;;;;5093620;28;20161;-60
2022/04/27 09:25:56;;;;;;;2.75;2.30;;;14.80;93.40;;;;;;5093311;28;20233;-61
2022/04/27 09:28:30;;;;;;;2.58;2.22;;;14.90;94.90;;;;;;5093413;28;20184;-61
2022/04/27 09:30:56;;;;;;;2.22;2.03;;;15.00;94.40;;;;;;5093250;28;20170;-50
2022/04/27 09:33:38;;;;;;;2.45;2.00;;;14.70;93.10;;;;;;5093081;28;20659;-61
2022/04/27 09:36:25;;;;;;;2.53;1.52;;;14.80;93.30;;;;;;5093441;28;20177;-61
2022/04/27 09:38:54;;;;;;;2.40;1.77;;;14.90;93.60;;;;;;5093294;28;20181;-61
2022/04/27 09:41:42;;;;;;;2.67;1.90;;;15.20;94.40;;;;;;5093139;28;20178;-61
2022/04/27 09:44:28;;;;;;;3.45;1.95;;;15.40;93.50;;;;;;5093222;28;20215;-61
2022/04/27 09:46:53;;;;;;;4.18;2.05;;;15.80;92.90;;;;;;5108791;28;20670;-61
2022/04/27 09:49:19;;;;;;;3.17;2.88;;;15.80;89.00;;;;;;5091820;28;20171;-61
2022/04/27 09:51:50;;;;;;;2.45;2.25;;;15.20;89.60;;;;;;5092967;28;20227;-61
2022/04/27 09:54:23;;;;;;;3.83;2.35;;;15.20;90.80;;;;;;5092879;28;20171;-61
2022/04/27 09:57:13;;;;;;;2.75;2.42;;;15.40;92.80;;;;;;5093192;28;20173;-50
2022/04/27 09:59:39;;;;;;;4.65;3.00;;;15.40;92.00;;;;;;5094872;28;20170;-60
2022/04/27 10:02:09;;;;;;;2.85;2.55;;;15.40;90.80;;;;;;5096850;28;20166;-61
2022/04/27 10:04:36;;;;;;;3.20;2.33;;;15.60;92.90;;;;;;5096480;28;20193;-61
2022/04/27 10:07:13;;;;;;;2.80;2.40;;;15.70;90.40;;;;;;5097013;28;20209;-61
2022/04/27 10:09:39;;;;;;;3.72;3.00;;;15.10;91.10;;;;;;5097110;28;20202;-60
2022/04/27 10:12:07;;;;;;;3.17;2.50;;;14.90;92.30;;;;;;5096669;28;20170;-61
2022/04/27 10:14:33;;;;;;;3.45;2.97;;;14.90;91.70;;;;;;5096579;28;20708;-61
2022/04/27 10:16:59;;;;;;;2.50;2.30;;;15.20;90.70;;;;;;5096599;28;20178;-61
2022/04/27 10:19:25;;;;;;;3.30;2.80;;;15.40;92.30;;;;;;5096543;28;20174;-60
2022/04/27 10:21:58;;;;;;;3.13;2.83;;;15.50;91.80;;;;;;5096559;28;20223;-60
2022/04/27 10:24:42;;;;;;;4.78;3.20;;;15.70;89.80;;;;;;5096511;28;20174;-61
2022/04/27 10:27:14;;;;;;;3.22;2.92;;;15.80;89.60;;;;;;5096342;28;20604;-60
2022/04/27 10:29:40;;;;;;;3.17;2.58;;;15.90;88.00;;;;;;5096168;28;20185;-60
2022/04/27 10:32:06;;;;;;;4.28;3.08;;;15.40;91.10;;;;;;5096393;28;20166;-60
2022/04/27 10:34:33;;;;;;;4.20;2.80;;;15.80;89.10;;;;;;5096227;28;20643;-59
2022/04/27 10:37:03;;;;;;;3.33;2.80;;;15.50;87.50;;;;;;5096364;28;20181;-61
2022/04/27 10:39:32;;;;;;;4.35;3.10;;;15.50;88.60;;;;;;5096139;28;20690;-61
2022/04/27 10:42:04;;;;;;;3.72;3.20;;;15.60;91.10;;;;;;5096170;28;20567;-62
2022/04/27 10:44:49;;;;;;;4.45;2.88;;;16.20;90.50;;;;;;5096337;28;20245;-62
2022/04/27 10:47:18;;;;;;;3.90;2.92;;;16.30;88.10;;;;;;5096119;28;20217;-61
2022/04/27 10:49:46;;;;;;;3.17;2.88;;;16.30;91.10;;;;;;5095992;28;20185;-61
2022/04/27 10:52:13;;;;;;;4.22;3.55;;;16.60;91.00;;;;;;5094806;28;20638;-61
2022/04/27 10:54:40;;;;;;;5.15;3.50;;;16.40;89.50;;;;;;5095793;28;20166;-61
2022/04/27 10:57:14;;;;;;;4.97;3.67;;;15.60;86.70;;;;;;5095817;28;20263;-61
2022/04/27 10:59:59;;;;;;;3.85;3.20;;;15.10;90.60;;;;;;5095883;28;20172;-61
2022/04/27 11:02:38;;;;;;;4.38;3.38;;;14.60;90.90;;;;;;5095752;28;20197;-61
2022/04/27 11:05:05;;;;;;;3.53;3.13;;;14.20;91.80;;;;;;5095768;28;20325;-61
2022/04/27 11:07:52;;;;;;;4.20;3.30;;;14.20;93.50;;;;;;5096098;28;20205;-61
2022/04/27 11:10:21;;;;;;;5.90;4.03;;;14.30;93.00;;;;;;5095307;28;20256;-61
2022/04/27 11:12:55;;;;;;;4.07;3.67;;;14.60;94.40;;;;;;5095318;28;20178;-61
2022/04/27 11:15:23;;;;;;;5.78;3.78;;;15.10;93.30;;;;;;5095550;28;20187;-61
2022/04/27 11:18:01;;;;;;;4.57;3.63;;;15.40;92.10;;;;;;5095618;28;20171;-61
2022/04/27 11:20:32;;;;;;;5.05;3.63;;;15.80;92.50;;;;;;5095615;28;20188;-61
2022/04/27 11:22:59;;;;;;;4.53;3.58;;;16.00;89.10;;;;;;5095477;28;20516;-61
2022/04/27 11:25:35;;;;;;;6.07;4.22;;;16.00;86.90;;;;;;5095250;28;20650;-61
2022/04/27 11:28:01;;;;;;;4.82;3.80;;;16.10;90.20;;;;;;5095104;28;20185;-61
2022/04/27 11:30:28;;;;;;;4.68;3.88;;;16.20;87.90;;;;;;5095422;28;20181;-61
2022/04/27 11:32:54;;;;;;;3.97;3.58;;;15.90;81.90;;;;;;5095424;28;20174;-61
2022/04/27 11:35:25;;;;;;;4.43;3.22;;;16.10;87.20;;;;;;5095339;28;20181;-59
2022/04/27 11:37:55;;;;;;;4.90;3.55;;;16.00;88.90;;;;;;5095113;28;20180;-61
2022/04/27 11:40:28;;;;;;;3.88;3.55;;;16.10;86.70;;;;;;5094978;28;20173;-61
2022/04/27 11:42:57;;;;;;;5.30;4.50;;;16.30;88.30;;;;;;5095196;28;20176;-61
2022/04/27 11:45:26;;;;;;;4.47;3.45;;;16.40;89.70;;;;;;5095191;28;20166;-61
2022/04/27 11:48:10;;;;;;;4.03;3.55;;;16.60;87.50;;;;;;5094862;28;20609;-61
2022/04/27 11:50:42;;;;;;;3.60;3.08;;;17.00;88.50;;;;;;5094860;28;20223;-61
2022/04/27 11:53:14;;;;;;;4.32;3.65;;;17.00;84.30;;;;;;5094606;28;20298;-61
2022/04/27 11:55:41;;;;;;;4.53;4.07;;;16.90;83.90;;;;;;5094971;28;20173;-62
2022/04/27 11:58:10;;;;;;;5.55;4.10;;;16.80;81.90;;;;;;5094721;28;20177;-61
2022/04/27 12:00:36;;;;;;;4.88;3.65;;;16.30;80.50;;;;;;5094614;28;20257;-61
2022/04/27 12:03:03;;;;;;;5.55;4.47;;;16.40;87.70;;;;;;5094618;28;20204;-61
2022/04/27 12:05:31;;;;;;;4.45;4.00;;;16.50;82.10;;;;;;5094581;28;20194;-61
2022/04/27 12:07:57;;;;;;;4.30;3.60;;;16.40;81.50;;;;;;5094559;28;20221;-61
2022/04/27 12:10:23;;;;;;;5.60;3.80;;;16.70;81.30;;;;;;5094549;28;20232;-61
2022/04/27 12:12:49;;;;;;;6.32;3.80;;;16.40;83.30;;;;;;5094495;28;20177;-61
2022/04/27 12:15:15;;;;;;;4.85;4.35;;;16.90;85.90;;;;;;5094414;28;20178;-61
2022/04/27 12:17:50;;;;;;;5.00;3.58;;;17.30;82.50;;;;;;5094253;28;20579;-61
2022/04/27 12:20:34;;;;;;;5.30;3.90;;;17.30;80.60;;;;;;5094415;28;20177;-61
2022/04/27 12:23:02;;;;;;;5.13;4.18;;;17.20;78.70;;;;;;5093339;28;20178;-61
2022/04/27 12:25:37;;;;;;;5.55;4.03;;;16.90;78.80;;;;;;5094259;28;20166;-61
2022/04/27 12:28:05;;;;;;;6.80;4.40;;;16.60;82.30;;;;;;5094171;28;20185;-61
2022/04/27 12:30:31;;;;;;;5.15;4.45;;;16.20;83.90;;;;;;5093969;28;20176;-61
2022/04/27 12:32:58;;;;;;;4.82;4.13;;;16.00;85.40;;;;;;5094220;28;20182;-61
2022/04/27 12:38:17;;;;;;;5.63;4.22;;;15.40;86.30;;;;;;5094060;28;20605;-60
2022/04/27 12:40:42;;;;;;;4.32;3.92;;;15.50;88.70;;;;;;5093956;28;20185;-61
2022/04/27 12:43:11;;;;;;;5.72;4.28;;;15.70;88.40;;;;;;5094063;28;20177;-61
2022/04/27 12:45:37;;;;;;;5.30;3.67;;;15.90;88.20;;;;;;5093936;28;20193;-61
2022/04/27 12:48:06;;;;;;;4.13;3.58;;;16.30;89.10;;;;;;5093802;28;20226;-61
2022/04/27 12:50:33;;;;;;;4.40;3.97;;;16.60;88.10;;;;;;5093855;28;20170;-61
2022/04/27 12:53:09;;;;;;;4.40;3.75;;;16.60;86.70;;;;;;5093725;28;20185;-61
2022/04/27 12:55:36;;;;;;;4.00;3.60;;;16.60;88.80;;;;;;5094169;28;20174;-61
2022/04/27 12:58:03;;;;;;;5.97;3.88;;;17.10;90.20;;;;;;5094097;28;20189;-61
2022/04/27 13:00:48;;;;;;;4.40;4.00;;;17.10;84.50;;;;;;5093644;28;20180;-61
2022/04/27 13:03:14;;;;;;;4.80;3.80;;;16.80;83.00;;;;;;5093529;28;20209;-61
2022/04/27 13:05:42;;;;;;;3.90;3.47;;;16.50;80.60;;;;;;5093218;28;20675;-61
2022/04/27 13:08:11;;;;;;;4.28;3.42;;;15.90;86.90;;;;;;5093691;28;20717;-61
2022/04/27 13:13:24;;;;;;;4.10;3.70;;;16.00;86.90;;;;;;5093648;28;20185;-61
2022/04/27 13:15:50;;;;;;;4.00;3.30;;;16.10;86.00;;;;;;5093509;28;20170;-61
2022/04/27 13:18:17;;;;;;;8.45;4.40;;;16.20;86.20;;;;;;5093359;28;20171;-61
2022/04/27 13:20:44;;;;;;;6.80;4.25;;;16.00;85.40;;;;;;5093518;28;20170;-61